Time;durP1;ratioP1;P1;durP2;ratioP2;P2;SDS_P1;SDS_P2;PMS_P1;PMS_P2;Temp;Humidity;BMP_temperature;BMP_pressure;BME280_temperature;BME280_humidity;BME280_pressure;Samples;Min_cycle;Max_cycle;Signal;HPM_P1;HPM_P2
2022/03/08 00:02:24;;;;;;;34.30;17.70;;;-0.60;63.80;;;;;;5090056;28;20432;-77
2022/03/08 00:04:50;;;;;;;36.27;16.80;;;-0.60;63.80;;;;;;5090600;28;20190;-74
2022/03/08 00:07:17;;;;;;;32.90;16.60;;;-0.70;63.80;;;;;;5090539;28;20237;-76
2022/03/08 00:09:43;;;;;;;36.63;16.52;;;-0.70;63.80;;;;;;5089603;28;20237;-75
2022/03/08 00:12:10;;;;;;;33.08;16.27;;;-0.80;64.10;;;;;;5078447;28;20179;-77
2022/03/08 00:14:35;;;;;;;40.95;17.60;;;-0.80;63.80;;;;;;5080673;28;20175;-77
2022/03/08 00:17:02;;;;;;;39.63;16.90;;;-0.80;64.10;;;;;;5091393;28;20555;-77
2022/03/08 00:19:28;;;;;;;36.38;16.45;;;-0.80;64.40;;;;;;5101342;28;20211;-76
2022/03/08 00:21:54;;;;;;;36.83;17.67;;;-0.90;64.80;;;;;;5102347;28;20203;-77
2022/03/08 00:24:20;;;;;;;36.33;17.00;;;-0.90;65.00;;;;;;5091862;28;20183;-75
2022/03/08 00:26:45;;;;;;;32.77;16.20;;;-0.90;65.10;;;;;;5090807;28;20732;-77
2022/03/08 00:29:11;;;;;;;33.80;16.07;;;-0.90;65.40;;;;;;5090442;28;20242;-75
2022/03/08 00:31:37;;;;;;;30.73;15.00;;;-0.90;65.30;;;;;;5082035;28;20182;-77
2022/03/08 00:34:04;;;;;;;33.60;15.93;;;-0.90;65.30;;;;;;5089863;28;20545;-76
2022/03/08 00:36:31;;;;;;;30.33;15.88;;;-0.90;65.10;;;;;;5084739;28;20175;-77
2022/03/08 00:38:57;;;;;;;35.28;16.00;;;-0.90;65.10;;;;;;5090109;28;20240;-76
2022/03/08 00:41:22;;;;;;;37.70;16.07;;;-0.90;65.30;;;;;;5090451;28;20558;-77
2022/03/08 00:43:49;;;;;;;31.63;15.53;;;-1.00;65.40;;;;;;5090306;28;20911;-75
2022/03/08 00:46:15;;;;;;;29.67;14.18;;;-1.00;65.70;;;;;;5089829;28;20405;-76
2022/03/08 00:48:42;;;;;;;31.90;16.10;;;-1.00;65.60;;;;;;5089530;28;20749;-77
2022/03/08 00:51:08;;;;;;;32.33;15.70;;;-1.00;65.80;;;;;;5090153;28;20226;-78
2022/03/08 00:53:34;;;;;;;33.78;15.93;;;-1.00;65.80;;;;;;5089427;28;20179;-76
2022/03/08 00:56:00;;;;;;;36.90;16.42;;;-1.00;66.00;;;;;;5090139;28;20901;-75
2022/03/08 00:58:25;;;;;;;32.20;15.87;;;-1.00;66.00;;;;;;5070976;28;20178;-75
2022/03/08 01:00:52;;;;;;;33.73;15.93;;;-1.00;66.30;;;;;;5089834;28;20432;-76
2022/03/08 01:03:17;;;;;;;33.70;15.02;;;-1.00;66.40;;;;;;5089675;28;20691;-77
2022/03/08 01:05:43;;;;;;;30.40;14.40;;;-1.10;66.40;;;;;;5089842;28;20252;-75
2022/03/08 01:08:09;;;;;;;30.80;14.77;;;-1.10;66.90;;;;;;5089191;28;20195;-76
2022/03/08 01:10:35;;;;;;;30.42;15.20;;;-1.10;66.70;;;;;;5083821;28;20218;-76
2022/03/08 01:13:01;;;;;;;32.00;15.70;;;-1.20;66.60;;;;;;5090284;28;20200;-77
2022/03/08 01:15:27;;;;;;;30.00;15.80;;;-1.20;66.70;;;;;;5093053;28;20206;-76
2022/03/08 01:17:54;;;;;;;28.65;14.07;;;-1.20;66.60;;;;;;5092628;28;20186;-77
2022/03/08 01:20:20;;;;;;;28.20;14.05;;;-1.20;66.70;;;;;;5092967;28;20760;-76
2022/03/08 01:22:46;;;;;;;27.15;13.95;;;-1.20;66.90;;;;;;5093542;28;20698;-77
2022/03/08 01:25:14;;;;;;;31.43;16.03;;;-1.20;67.20;;;;;;5093139;28;20183;-74
2022/03/08 01:27:40;;;;;;;32.78;15.55;;;-1.20;67.50;;;;;;5093290;28;20950;-75
2022/03/08 01:30:08;;;;;;;30.63;14.88;;;-1.30;67.60;;;;;;5092940;28;20207;-77
2022/03/08 01:32:34;;;;;;;28.35;15.25;;;-1.30;67.70;;;;;;5093090;28;20187;-75
2022/03/08 01:35:00;;;;;;;34.10;15.47;;;-1.20;67.70;;;;;;5092459;28;20191;-73
2022/03/08 01:37:25;;;;;;;31.13;15.07;;;-1.30;67.60;;;;;;5092698;28;20794;-77
2022/03/08 01:39:51;;;;;;;30.13;14.70;;;-1.20;67.60;;;;;;5092889;28;20199;-77
2022/03/08 01:42:23;;;;;;;30.13;14.53;;;-1.20;67.60;;;;;;5092887;28;20175;-75
2022/03/08 01:44:50;;;;;;;36.22;15.80;;;-1.30;67.20;;;;;;5092798;28;20183;-75
2022/03/08 01:47:21;;;;;;;31.00;13.68;;;-1.30;67.00;;;;;;5092830;28;20206;-76
2022/03/08 01:49:49;;;;;;;29.23;14.00;;;-1.40;67.50;;;;;;5092399;28;20211;-75
2022/03/08 01:52:16;;;;;;;35.22;14.85;;;-1.40;67.70;;;;;;5092828;28;20187;-77
2022/03/08 01:54:44;;;;;;;28.33;14.00;;;-1.40;67.90;;;;;;5092598;28;20171;-75
2022/03/08 01:57:12;;;;;;;29.70;14.57;;;-1.40;67.90;;;;;;5095994;28;20194;-75
2022/03/08 01:59:38;;;;;;;34.17;15.65;;;-1.40;67.90;;;;;;5101810;28;20195;-75
2022/03/08 02:02:04;;;;;;;28.10;13.60;;;-1.40;67.90;;;;;;5081173;28;20573;-77
2022/03/08 02:04:30;;;;;;;30.30;14.23;;;-1.40;67.90;;;;;;5095869;28;20535;-74
2022/03/08 02:06:56;;;;;;;26.50;13.47;;;-1.50;67.70;;;;;;5093272;28;20209;-75
2022/03/08 02:09:22;;;;;;;33.38;13.98;;;-1.50;67.60;;;;;;5088697;28;20848;-76
2022/03/08 02:11:48;;;;;;;26.23;12.83;;;-1.50;67.90;;;;;;5079032;28;20180;-76
2022/03/08 02:14:16;;;;;;;28.17;14.10;;;-1.60;67.70;;;;;;5098007;28;20180;-75
2022/03/08 02:16:42;;;;;;;26.25;13.82;;;-1.60;68.00;;;;;;5096277;28;20413;-78
2022/03/08 02:19:11;;;;;;;29.00;14.43;;;-1.60;68.20;;;;;;5097643;28;20210;-77
2022/03/08 02:21:37;;;;;;;28.38;13.35;;;-1.60;68.20;;;;;;5081353;28;20425;-76
2022/03/08 02:24:03;;;;;;;35.20;13.77;;;-1.60;68.20;;;;;;5078434;28;20202;-76
2022/03/08 02:26:31;;;;;;;26.42;13.55;;;-1.60;68.80;;;;;;5092796;28;20189;-77
2022/03/08 02:29:01;;;;;;;31.85;14.93;;;-1.60;69.10;;;;;;5091732;28;20207;-77
2022/03/08 02:31:27;;;;;;;27.70;14.20;;;-1.60;69.10;;;;;;5081287;28;20176;-76
2022/03/08 02:33:52;;;;;;;34.20;15.40;;;-1.60;69.20;;;;;;5094506;28;20187;-76
2022/03/08 02:36:18;;;;;;;34.87;14.93;;;-1.60;69.50;;;;;;5087003;28;20470;-75
2022/03/08 02:38:44;;;;;;;29.60;13.63;;;-1.70;69.70;;;;;;5091835;28;20966;-77
2022/03/08 02:41:10;;;;;;;29.02;13.75;;;-1.60;69.20;;;;;;5098298;28;20425;-74
2022/03/08 02:43:36;;;;;;;32.77;14.80;;;-1.60;69.10;;;;;;5084714;28;20179;-75
2022/03/08 02:46:02;;;;;;;30.83;15.30;;;-1.70;68.60;;;;;;5093136;28;20425;-74
2022/03/08 02:48:29;;;;;;;31.60;14.13;;;-1.70;68.60;;;;;;5094733;28;20205;-77
2022/03/08 02:50:55;;;;;;;31.20;14.40;;;-1.70;68.20;;;;;;5100125;28;20235;-77
2022/03/08 02:53:21;;;;;;;31.38;14.48;;;-1.80;68.60;;;;;;5101579;28;21060;-76
2022/03/08 02:55:47;;;;;;;28.83;13.67;;;-1.80;69.10;;;;;;5099437;28;20187;-76
2022/03/08 02:58:13;;;;;;;28.83;13.50;;;-1.80;69.20;;;;;;5095869;28;20316;-75
2022/03/08 03:00:39;;;;;;;28.90;13.63;;;-1.90;69.70;;;;;;5092487;28;20939;-76
2022/03/08 03:03:05;;;;;;;31.10;15.07;;;-1.90;69.90;;;;;;5091195;28;20429;-77
2022/03/08 03:05:31;;;;;;;27.88;14.23;;;-1.90;70.10;;;;;;5090768;28;20561;-76
2022/03/08 03:07:57;;;;;;;30.50;15.35;;;-1.90;70.10;;;;;;5076450;28;20178;-76
2022/03/08 03:10:24;;;;;;;30.15;14.35;;;-1.90;70.10;;;;;;5091198;28;20408;-75
2022/03/08 03:12:51;;;;;;;34.42;14.95;;;-1.90;70.50;;;;;;5073652;28;20595;-75
2022/03/08 03:15:21;;;;;;;30.45;13.98;;;-1.90;70.70;;;;;;5091701;28;20649;-75
2022/03/08 03:17:48;;;;;;;29.67;14.57;;;-1.90;70.50;;;;;;5092206;28;20175;-76
2022/03/08 03:20:16;;;;;;;29.58;14.05;;;-1.90;70.10;;;;;;5092069;28;20561;-76
2022/03/08 03:22:43;;;;;;;28.33;13.98;;;-1.90;69.90;;;;;;5092249;28;20175;-76
2022/03/08 03:25:09;;;;;;;31.05;13.73;;;-2.00;69.90;;;;;;5092251;28;20534;-77
2022/03/08 03:27:35;;;;;;;33.92;14.82;;;-2.00;69.80;;;;;;5090907;28;20189;-77
2022/03/08 03:30:04;;;;;;;30.00;13.82;;;-2.00;69.80;;;;;;5078812;28;20260;-77
2022/03/08 03:32:31;;;;;;;25.20;13.43;;;-2.00;69.90;;;;;;5090897;28;20179;-74
2022/03/08 03:34:57;;;;;;;34.92;14.65;;;-2.00;70.50;;;;;;5067464;28;20179;-75
2022/03/08 03:37:23;;;;;;;28.20;14.07;;;-2.00;71.00;;;;;;5090512;28;20178;-75
2022/03/08 03:39:50;;;;;;;29.20;13.35;;;-2.00;71.10;;;;;;5091429;28;20226;-76
2022/03/08 03:42:16;;;;;;;29.55;14.10;;;-2.00;71.10;;;;;;5091994;28;20183;-77
2022/03/08 03:44:42;;;;;;;36.07;15.13;;;-2.00;71.10;;;;;;5091749;28;20221;-77
2022/03/08 03:47:07;;;;;;;31.73;14.13;;;-2.10;71.00;;;;;;5090837;28;20324;-76
2022/03/08 03:49:33;;;;;;;26.27;13.37;;;-2.00;71.00;;;;;;5091307;28;20309;-75
2022/03/08 03:51:59;;;;;;;27.97;13.53;;;-2.10;71.00;;;;;;5091432;28;20417;-78
2022/03/08 03:54:25;;;;;;;28.97;13.90;;;-2.10;71.30;;;;;;5091294;28;20171;-77
2022/03/08 03:56:51;;;;;;;31.10;13.97;;;-2.10;71.60;;;;;;5078555;28;20420;-76
2022/03/08 03:59:17;;;;;;;25.40;13.10;;;-2.10;71.70;;;;;;5096817;28;20490;-77
2022/03/08 04:01:43;;;;;;;29.47;13.23;;;-2.10;71.70;;;;;;5097850;28;20788;-75
2022/03/08 04:04:08;;;;;;;31.70;13.67;;;-2.10;71.60;;;;;;5095149;28;20421;-76
2022/03/08 04:06:35;;;;;;;29.00;13.37;;;-2.20;71.60;;;;;;5090752;28;20417;-76
2022/03/08 04:09:05;;;;;;;24.83;12.00;;;-2.20;71.60;;;;;;5092364;28;20289;-76
2022/03/08 04:11:31;;;;;;;27.23;12.90;;;-2.20;71.40;;;;;;5103354;28;20179;-74
2022/03/08 04:13:57;;;;;;;25.43;12.43;;;-2.20;71.40;;;;;;5095184;28;20232;-76
2022/03/08 04:16:23;;;;;;;25.60;12.18;;;-2.20;71.30;;;;;;5091167;28;20418;-75
2022/03/08 04:18:49;;;;;;;24.27;11.80;;;-2.30;71.10;;;;;;5090717;28;20199;-76
2022/03/08 04:21:15;;;;;;;26.43;12.37;;;-2.20;70.70;;;;;;5076071;28;20299;-76
2022/03/08 04:23:40;;;;;;;27.23;12.17;;;-2.20;70.10;;;;;;5091012;28;20236;-76
2022/03/08 04:26:06;;;;;;;26.20;12.00;;;-2.10;69.80;;;;;;5090980;28;20262;-76
2022/03/08 04:28:32;;;;;;;28.60;12.77;;;-2.20;69.70;;;;;;5090544;28;20283;-74
2022/03/08 04:30:58;;;;;;;24.60;11.80;;;-2.20;69.90;;;;;;5090805;28;20214;-76
2022/03/08 04:33:23;;;;;;;30.57;12.57;;;-2.20;70.10;;;;;;5091435;28;20182;-77
2022/03/08 04:35:49;;;;;;;30.27;13.87;;;-2.20;70.40;;;;;;5086174;28;20183;-77
2022/03/08 04:38:15;;;;;;;32.10;14.67;;;-2.20;70.40;;;;;;5086475;28;20406;-75
2022/03/08 04:40:41;;;;;;;32.43;14.70;;;-2.10;71.70;;;;;;5094594;28;20199;-75
2022/03/08 04:43:07;;;;;;;31.50;13.90;;;-2.10;72.70;;;;;;5092606;28;20835;-75
2022/03/08 04:45:33;;;;;;;30.80;14.43;;;-2.00;72.90;;;;;;5072405;28;20421;-77
2022/03/08 04:47:59;;;;;;;32.83;15.67;;;-2.00;73.00;;;;;;5094918;28;20199;-78
2022/03/08 04:50:25;;;;;;;30.35;15.82;;;-2.00;73.30;;;;;;5100821;28;20217;-77
2022/03/08 04:52:51;;;;;;;34.47;16.07;;;-2.10;73.30;;;;;;5096655;28;20620;-75
2022/03/08 04:55:18;;;;;;;31.37;14.90;;;-2.10;73.50;;;;;;5095473;28;20175;-76
2022/03/08 04:57:44;;;;;;;32.50;14.75;;;-2.10;73.30;;;;;;5094049;28;20420;-75
2022/03/08 05:00:12;;;;;;;30.63;13.70;;;-2.00;72.90;;;;;;5092932;28;20207;-76
2022/03/08 05:02:42;;;;;;;29.73;13.85;;;-2.10;72.70;;;;;;5082677;28;20278;-76
2022/03/08 05:05:09;;;;;;;32.22;14.35;;;-2.10;72.70;;;;;;5084992;28;20214;-76
2022/03/08 05:07:36;;;;;;;28.13;13.70;;;-2.00;72.70;;;;;;5099495;28;20269;-74
2022/03/08 05:10:04;;;;;;;25.92;12.07;;;-2.00;72.40;;;;;;5093082;28;20241;-76
2022/03/08 05:12:30;;;;;;;27.58;13.38;;;-1.90;72.10;;;;;;5086087;28;20232;-75
2022/03/08 05:14:56;;;;;;;26.73;11.68;;;-2.00;72.00;;;;;;5104142;28;20672;-73
2022/03/08 05:17:22;;;;;;;22.52;10.68;;;-2.00;72.00;;;;;;5100431;28;20180;-75
2022/03/08 05:19:48;;;;;;;21.37;10.90;;;-2.00;71.40;;;;;;5093768;28;20210;-76
2022/03/08 05:22:14;;;;;;;27.67;10.80;;;-2.00;71.10;;;;;;5082484;28;20191;-76
2022/03/08 05:24:40;;;;;;;29.87;14.03;;;-2.10;71.10;;;;;;5093056;28;20425;-76
2022/03/08 05:27:07;;;;;;;32.03;13.45;;;-2.10;71.40;;;;;;5093448;28;20187;-76
2022/03/08 05:29:33;;;;;;;21.55;11.75;;;-2.10;72.10;;;;;;5095006;28;20203;-75
2022/03/08 05:31:59;;;;;;;26.98;12.02;;;-2.10;72.00;;;;;;5079624;28;20187;-74
2022/03/08 05:34:25;;;;;;;27.23;12.30;;;-2.10;71.60;;;;;;5091699;28;20668;-75
2022/03/08 05:36:51;;;;;;;24.73;10.43;;;-2.10;71.60;;;;;;5089356;28;20526;-74
2022/03/08 05:39:17;;;;;;;20.65;11.07;;;-2.10;71.40;;;;;;5092576;28;20440;-75
2022/03/08 05:41:43;;;;;;;20.17;9.93;;;-2.20;71.40;;;;;;5093145;28;20797;-75
2022/03/08 05:44:09;;;;;;;17.13;9.13;;;-2.20;71.30;;;;;;5079911;28;20210;-76
2022/03/08 05:46:35;;;;;;;24.10;11.47;;;-2.20;70.80;;;;;;5078890;28;20549;-76
2022/03/08 05:49:01;;;;;;;20.63;10.13;;;-2.20;70.80;;;;;;5094275;28;20222;-77
2022/03/08 05:51:26;;;;;;;19.27;11.43;;;-2.20;71.00;;;;;;5095384;28;20653;-76
2022/03/08 05:53:52;;;;;;;22.60;11.10;;;-2.20;71.10;;;;;;5077451;28;20657;-75
2022/03/08 05:56:18;;;;;;;31.00;14.00;;;-2.20;71.80;;;;;;5095467;28;20327;-77
2022/03/08 05:58:43;;;;;;;32.43;15.00;;;-2.20;72.40;;;;;;5080197;28;20225;-76
2022/03/08 06:01:09;;;;;;;27.70;13.77;;;-2.10;73.30;;;;;;5100965;28;20377;-75
2022/03/08 06:03:35;;;;;;;26.37;14.57;;;-2.10;73.70;;;;;;5097936;28;20175;-77
2022/03/08 06:06:01;;;;;;;29.40;12.93;;;-2.10;73.90;;;;;;5102162;28;20674;-75
2022/03/08 06:08:26;;;;;;;31.33;14.70;;;-2.10;74.00;;;;;;5110871;28;20243;-76
2022/03/08 06:10:52;;;;;;;33.20;14.13;;;-2.10;73.90;;;;;;5113794;28;20240;-76
2022/03/08 06:13:18;;;;;;;32.30;14.20;;;-2.00;73.90;;;;;;5111239;28;20181;-77
2022/03/08 06:15:44;;;;;;;35.70;14.60;;;-2.00;74.20;;;;;;5108474;28;20998;-77
2022/03/08 06:18:10;;;;;;;35.30;14.90;;;-2.00;74.30;;;;;;5094074;28;20183;-77
2022/03/08 06:20:35;;;;;;;40.27;16.00;;;-2.00;74.30;;;;;;5093047;28;20784;-77
2022/03/08 06:23:01;;;;;;;28.83;12.90;;;-1.90;74.30;;;;;;5099981;28;20179;-77
2022/03/08 06:25:27;;;;;;;31.53;15.40;;;-1.90;74.00;;;;;;5083002;28;20195;-76
2022/03/08 06:27:52;;;;;;;30.10;13.87;;;-1.90;73.90;;;;;;5091753;28;20696;-77
2022/03/08 06:30:18;;;;;;;30.43;14.23;;;-1.90;73.60;;;;;;5093977;28;20211;-78
2022/03/08 06:32:44;;;;;;;34.03;14.70;;;-1.80;73.00;;;;;;5092747;28;20203;-76
2022/03/08 06:35:10;;;;;;;32.83;15.70;;;-1.80;73.00;;;;;;5070924;28;20229;-76
2022/03/08 06:37:36;;;;;;;34.28;15.10;;;-1.80;73.00;;;;;;5094955;28;20189;-77
2022/03/08 06:40:03;;;;;;;32.87;14.83;;;-1.70;73.00;;;;;;5105205;28;20203;-77
2022/03/08 06:42:29;;;;;;;34.58;15.13;;;-1.70;72.60;;;;;;5100293;28;20425;-77
2022/03/08 06:44:54;;;;;;;34.10;15.47;;;-1.60;72.60;;;;;;5093634;28;20179;-76
2022/03/08 06:47:20;;;;;;;29.47;14.97;;;-1.60;72.70;;;;;;5093561;28;20869;-77
2022/03/08 06:49:46;;;;;;;27.93;13.60;;;-1.50;71.80;;;;;;5093681;28;20227;-77
2022/03/08 06:52:12;;;;;;;38.13;13.87;;;-1.50;71.70;;;;;;5093927;28;20897;-77
2022/03/08 06:54:40;;;;;;;29.45;11.98;;;-1.40;70.50;;;;;;5094196;28;20173;-77
2022/03/08 06:57:06;;;;;;;29.55;13.43;;;-1.40;69.50;;;;;;5093759;28;20203;-76
2022/03/08 06:59:32;;;;;;;26.63;12.93;;;-1.30;68.60;;;;;;5094163;28;20202;-74
2022/03/08 07:01:57;;;;;;;26.43;12.90;;;-1.20;68.50;;;;;;5093862;28;20175;-77
2022/03/08 07:04:24;;;;;;;26.40;13.93;;;-1.20;68.30;;;;;;5093307;28;20179;-74
2022/03/08 07:06:50;;;;;;;28.92;12.93;;;-1.20;68.20;;;;;;5075717;28;20179;-77
2022/03/08 07:09:16;;;;;;;29.00;13.73;;;-1.20;68.60;;;;;;5085196;28;20220;-77
2022/03/08 07:11:41;;;;;;;29.27;13.20;;;-1.20;68.60;;;;;;5098365;28;20182;-77
2022/03/08 07:14:07;;;;;;;27.97;13.67;;;-1.10;68.30;;;;;;5086512;28;20203;-76
2022/03/08 07:16:34;;;;;;;21.38;12.63;;;-1.10;68.30;;;;;;5092732;28;20543;-76
2022/03/08 07:19:00;;;;;;;32.20;13.65;;;-1.00;68.00;;;;;;5074936;28;20195;-75
2022/03/08 07:21:26;;;;;;;35.63;14.27;;;-1.00;68.00;;;;;;5092616;28;20241;-75
2022/03/08 07:23:52;;;;;;;32.23;13.93;;;-0.90;68.80;;;;;;5077409;28;20179;-75
2022/03/08 07:26:18;;;;;;;31.75;14.50;;;-0.90;68.00;;;;;;5092018;28;20504;-76
2022/03/08 07:28:43;;;;;;;32.93;14.03;;;-0.90;68.20;;;;;;5074071;28;20293;-75
2022/03/08 07:31:12;;;;;;;31.43;15.03;;;-0.70;68.20;;;;;;5092301;28;21294;-76
2022/03/08 07:33:38;;;;;;;35.13;15.00;;;-0.70;68.50;;;;;;5092666;28;20589;-77
2022/03/08 07:36:04;;;;;;;30.70;13.50;;;-0.60;68.50;;;;;;5092386;28;20175;-75
2022/03/08 07:38:30;;;;;;;29.00;13.40;;;-0.50;68.20;;;;;;5092436;28;20424;-77
2022/03/08 07:40:56;;;;;;;25.87;13.50;;;-0.40;67.90;;;;;;5092870;28;20179;-76
2022/03/08 07:43:21;;;;;;;32.05;15.13;;;-0.40;67.60;;;;;;5074633;28;20228;-76
2022/03/08 07:45:47;;;;;;;25.80;13.37;;;-0.30;67.30;;;;;;5093288;28;20301;-76
2022/03/08 07:48:13;;;;;;;35.45;13.77;;;-0.30;67.60;;;;;;5099786;28;20199;-77
2022/03/08 07:50:39;;;;;;;26.60;11.37;;;-0.30;67.50;;;;;;5098341;28;20206;-74
2022/03/08 07:53:05;;;;;;;56.80;14.67;;;-0.10;66.40;;;;;;5092794;28;20175;-76
2022/03/08 07:55:32;;;;;;;39.03;13.10;;;0.00;65.60;;;;;;5092335;28;20189;-76
2022/03/08 07:57:59;;;;;;;26.50;11.68;;;0.10;65.60;;;;;;5076035;28;20190;-76
2022/03/08 08:00:26;;;;;;;28.95;13.35;;;0.20;64.80;;;;;;5074223;28;20214;-77
2022/03/08 08:02:52;;;;;;;28.08;10.40;;;0.50;63.40;;;;;;5092830;28;20175;-75
2022/03/08 08:05:18;;;;;;;20.38;9.80;;;0.60;62.90;;;;;;5092606;28;20179;-76
2022/03/08 08:07:45;;;;;;;18.40;10.00;;;0.80;61.90;;;;;;5092582;28;20545;-75
2022/03/08 08:10:11;;;;;;;17.48;9.32;;;1.00;60.90;;;;;;5073480;28;20211;-74
2022/03/08 08:12:37;;;;;;;14.73;8.73;;;1.30;59.60;;;;;;5092300;28;20178;-74
2022/03/08 08:15:05;;;;;;;22.05;9.50;;;1.50;58.90;;;;;;5092186;28;20421;-76
2022/03/08 08:17:31;;;;;;;22.40;9.68;;;1.70;58.20;;;;;;5091968;28;20210;-75
2022/03/08 08:19:56;;;;;;;18.87;10.23;;;1.90;57.70;;;;;;5092035;28;20234;-76
2022/03/08 08:22:22;;;;;;;19.73;10.53;;;2.00;57.20;;;;;;5094107;28;20228;-76
2022/03/08 08:24:48;;;;;;;20.77;9.80;;;2.10;56.60;;;;;;5096300;28;20421;-75
2022/03/08 08:27:14;;;;;;;18.47;9.73;;;2.20;56.80;;;;;;5096201;28;20546;-76
2022/03/08 08:29:40;;;;;;;18.37;9.90;;;2.30;56.50;;;;;;5096451;28;20620;-76
2022/03/08 08:32:06;;;;;;;24.45;11.02;;;2.40;56.10;;;;;;5077804;28;20444;-77
2022/03/08 08:34:32;;;;;;;17.70;9.77;;;2.50;56.00;;;;;;5096161;28;20284;-74
2022/03/08 08:36:58;;;;;;;17.83;10.20;;;2.60;55.60;;;;;;5077653;28;20806;-77
2022/03/08 08:39:24;;;;;;;20.08;9.52;;;2.70;55.30;;;;;;5095746;28;20976;-76
2022/03/08 08:41:50;;;;;;;17.23;9.77;;;2.80;55.20;;;;;;5077319;28;20183;-75
2022/03/08 08:44:17;;;;;;;17.50;9.30;;;2.90;55.00;;;;;;5093009;28;20432;-75
2022/03/08 08:46:43;;;;;;;15.00;8.70;;;3.00;54.20;;;;;;5077184;28;20798;-75
2022/03/08 08:49:09;;;;;;;18.70;9.40;;;3.10;54.10;;;;;;5077315;28;20457;-76
2022/03/08 08:51:34;;;;;;;17.10;9.03;;;3.20;53.80;;;;;;5096435;28;20941;-75
2022/03/08 08:54:01;;;;;;;15.63;9.73;;;3.20;53.60;;;;;;5096524;28;20413;-76
2022/03/08 08:56:26;;;;;;;14.93;8.77;;;3.30;53.60;;;;;;5096324;28;20168;-76
2022/03/08 08:58:52;;;;;;;15.93;9.30;;;3.40;53.60;;;;;;5095610;28;20804;-76
2022/03/08 09:01:18;;;;;;;14.13;7.60;;;3.50;53.00;;;;;;5095283;28;20179;-76
2022/03/08 09:03:44;;;;;;;16.23;8.33;;;3.60;52.50;;;;;;5078097;28;20525;-75
2022/03/08 09:06:10;;;;;;;16.60;8.47;;;3.60;52.10;;;;;;5095643;28;20425;-74
2022/03/08 09:08:36;;;;;;;14.20;8.27;;;3.60;52.10;;;;;;5096519;28;20179;-76
2022/03/08 09:11:04;;;;;;;15.00;8.23;;;3.70;52.00;;;;;;5095512;28;20203;-74
2022/03/08 09:13:30;;;;;;;16.97;8.13;;;3.80;51.80;;;;;;5076780;28;20179;-73
2022/03/08 09:15:55;;;;;;;21.27;8.93;;;3.90;51.40;;;;;;5095160;28;20477;-74
2022/03/08 09:18:21;;;;;;;17.70;8.57;;;3.90;51.20;;;;;;5095389;28;20816;-76
2022/03/08 09:20:47;;;;;;;14.20;8.57;;;4.00;50.60;;;;;;5076513;28;20596;-76
2022/03/08 09:23:13;;;;;;;15.77;8.27;;;4.00;50.60;;;;;;5095503;28;20176;-74
2022/03/08 09:25:38;;;;;;;12.63;8.30;;;4.10;50.60;;;;;;5095656;28;20243;-75
2022/03/08 09:28:08;;;;;;;13.53;7.67;;;4.20;50.60;;;;;;5094629;28;20232;-73
2022/03/08 09:30:35;;;;;;;15.83;8.17;;;4.30;50.30;;;;;;5095401;28;20343;-75
2022/03/08 09:33:01;;;;;;;19.23;8.17;;;4.30;49.80;;;;;;5106542;28;20425;-76
2022/03/08 09:35:28;;;;;;;14.23;7.90;;;4.40;49.90;;;;;;5108954;28;20425;-75
2022/03/08 09:37:55;;;;;;;15.53;8.67;;;4.50;49.70;;;;;;5099751;28;20417;-76
2022/03/08 09:40:21;;;;;;;14.60;7.77;;;4.60;49.30;;;;;;5096713;28;20437;-76
2022/03/08 09:42:49;;;;;;;13.70;7.30;;;4.70;48.50;;;;;;5099251;28;20431;-74
2022/03/08 09:45:16;;;;;;;12.23;7.73;;;4.80;48.20;;;;;;5102793;28;20452;-77
2022/03/08 09:47:41;;;;;;;10.50;7.83;;;4.80;47.90;;;;;;5102684;28;20436;-76
2022/03/08 09:50:09;;;;;;;14.50;7.80;;;4.80;47.50;;;;;;5098631;28;20460;-75
2022/03/08 09:52:37;;;;;;;15.43;7.50;;;4.90;47.10;;;;;;5097480;28;20437;-76
2022/03/08 09:55:05;;;;;;;16.13;7.27;;;4.90;46.70;;;;;;5095599;28;20974;-77
2022/03/08 09:57:31;;;;;;;14.13;7.83;;;5.00;46.60;;;;;;5103951;28;20425;-75
2022/03/08 09:59:57;;;;;;;11.97;6.93;;;5.10;45.70;;;;;;5103809;28;20448;-76
2022/03/08 10:02:22;;;;;;;10.83;6.73;;;5.10;45.80;;;;;;5095739;28;20906;-78
2022/03/08 10:05:04;;;;;;;19.07;8.93;;;5.10;45.90;;;;;;5095098;28;20225;-78
2022/03/08 10:07:30;;;;;;;10.70;6.90;;;5.10;45.50;;;;;;5102453;28;20187;-76
2022/03/08 10:09:57;;;;;;;13.70;8.00;;;5.20;45.30;;;;;;5088870;28;20464;-77
2022/03/08 10:12:24;;;;;;;12.70;7.13;;;5.20;45.10;;;;;;5069184;28;20524;-78
2022/03/08 10:14:50;;;;;;;11.03;7.00;;;5.30;44.70;;;;;;5094145;28;21657;-77
2022/03/08 10:17:40;;;;;;;14.30;7.73;;;5.40;44.30;;;;;;5093808;28;20428;-77
2022/03/08 10:20:08;;;;;;;11.10;7.00;;;5.50;44.30;;;;;;5094049;28;20464;-77
2022/03/08 10:22:37;;;;;;;12.93;6.70;;;5.50;44.50;;;;;;5093368;28;20502;-77
2022/03/08 10:25:22;;;;;;;14.17;7.27;;;5.50;44.30;;;;;;5094389;28;20452;-77
2022/03/08 10:27:54;;;;;;;13.83;7.33;;;5.60;43.80;;;;;;5096313;28;20421;-77
2022/03/08 10:30:40;;;;;;;15.90;7.20;;;5.70;43.90;;;;;;5096073;28;20476;-77
2022/03/08 10:33:06;;;;;;;10.73;7.30;;;5.70;43.70;;;;;;5082337;28;20484;-78
2022/03/08 10:35:37;;;;;;;10.13;6.73;;;5.80;43.20;;;;;;5088150;28;20883;-77
2022/03/08 10:38:12;;;;;;;13.33;7.73;;;5.90;43.20;;;;;;5094639;28;20198;-77
2022/03/08 10:40:38;;;;;;;11.90;7.53;;;6.00;42.60;;;;;;5075521;28;20448;-76
2022/03/08 10:43:11;;;;;;;14.23;7.17;;;6.00;42.20;;;;;;5093211;28;20504;-77
2022/03/08 10:45:42;;;;;;;12.43;6.30;;;6.10;42.20;;;;;;5093637;28;20431;-77
2022/03/08 10:48:09;;;;;;;12.13;7.17;;;6.40;41.20;;;;;;5092372;28;20579;-77
2022/03/08 10:50:37;;;;;;;12.60;7.03;;;6.80;39.60;;;;;;5076760;28;20476;-76
2022/03/08 10:53:05;;;;;;;11.93;6.47;;;7.20;39.00;;;;;;5093519;28;20432;-77
2022/03/08 10:55:33;;;;;;;13.23;7.03;;;7.50;37.80;;;;;;5093707;28;20417;-77
2022/03/08 10:58:01;;;;;;;13.83;7.80;;;7.50;37.10;;;;;;5077730;28;20426;-78
2022/03/08 11:00:42;;;;;;;12.27;6.87;;;7.70;36.40;;;;;;5076788;28;20518;-78
2022/03/08 11:03:13;;;;;;;19.60;7.07;;;7.70;36.40;;;;;;5095119;28;20937;-76
2022/03/08 11:05:44;;;;;;;13.90;6.50;;;7.80;36.70;;;;;;5083993;28;20792;-77
2022/03/08 11:08:11;;;;;;;12.17;6.93;;;8.20;36.70;;;;;;5096061;28;20466;-76
2022/03/08 11:10:37;;;;;;;13.27;6.73;;;8.60;34.40;;;;;;5086304;28;20551;-78
2022/03/08 11:13:04;;;;;;;12.73;6.70;;;8.80;34.00;;;;;;5099382;28;20413;-78
2022/03/08 11:15:33;;;;;;;10.63;5.73;;;8.70;33.90;;;;;;5102859;28;20486;-78
2022/03/08 11:18:00;;;;;;;13.53;6.50;;;8.60;33.50;;;;;;5097286;28;20405;-77
2022/03/08 11:20:27;;;;;;;9.30;6.03;;;8.80;33.20;;;;;;5097454;28;20517;-77
2022/03/08 11:22:55;;;;;;;9.70;6.60;;;8.60;33.50;;;;;;5084851;28;20425;-76
2022/03/08 11:25:26;;;;;;;11.93;6.80;;;8.70;33.60;;;;;;5095453;28;20421;-78
2022/03/08 11:27:52;;;;;;;12.47;6.50;;;8.50;33.30;;;;;;5094496;28;20417;-77
2022/03/08 11:30:20;;;;;;;10.47;6.57;;;8.70;33.90;;;;;;5078003;28;20490;-77
2022/03/08 11:33:04;;;;;;;10.87;5.83;;;8.90;32.30;;;;;;5102406;28;20179;-77
2022/03/08 11:35:32;;;;;;;12.60;6.60;;;9.10;32.40;;;;;;5090298;28;20417;-78
2022/03/08 11:37:58;;;;;;;8.93;6.40;;;9.40;31.90;;;;;;5093921;28;20451;-77
2022/03/08 11:40:24;;;;;;;11.33;6.13;;;9.60;31.30;;;;;;5083408;28;20444;-76
2022/03/08 11:42:59;;;;;;;11.60;6.27;;;9.70;30.50;;;;;;5093656;28;20478;-76
2022/03/08 11:45:29;;;;;;;8.87;6.03;;;9.70;29.90;;;;;;5076550;28;20417;-77
2022/03/08 11:48:01;;;;;;;9.70;5.70;;;9.60;29.90;;;;;;5094571;28;20456;-78
2022/03/08 11:50:33;;;;;;;10.70;6.63;;;9.50;30.30;;;;;;5076069;28;20972;-77
2022/03/08 11:53:25;;;;;;;13.93;6.73;;;9.50;30.90;;;;;;5081647;28;20477;-77
2022/03/08 11:55:55;;;;;;;21.60;6.77;;;9.70;29.70;;;;;;5078910;28;20420;-76
2022/03/08 11:58:43;;;;;;;12.63;6.40;;;9.40;29.60;;;;;;5092647;28;20429;-77
2022/03/08 12:01:28;;;;;;;9.17;5.70;;;9.40;30.50;;;;;;5093910;28;20425;-77
2022/03/08 12:03:57;;;;;;;13.70;7.00;;;9.30;31.10;;;;;;5078046;28;20456;-77
2022/03/08 12:06:36;;;;;;;10.33;5.93;;;9.70;30.30;;;;;;5077480;28;20794;-76
2022/03/08 12:09:08;;;;;;;15.80;7.03;;;9.80;29.70;;;;;;5105661;28;20417;-74
2022/03/08 12:11:36;;;;;;;12.30;6.67;;;10.00;29.50;;;;;;5104119;28;20472;-78
2022/03/08 12:14:12;;;;;;;14.17;6.40;;;10.00;29.70;;;;;;5093609;28;20820;-78
2022/03/08 12:16:40;;;;;;;13.87;7.30;;;10.10;29.60;;;;;;5074673;28;20447;-78
2022/03/08 12:19:07;;;;;;;8.77;6.17;;;10.40;29.40;;;;;;5091925;28;20878;-77
2022/03/08 12:21:38;;;;;;;10.80;7.03;;;10.70;29.00;;;;;;5092101;28;20425;-77
2022/03/08 12:24:09;;;;;;;13.63;7.63;;;10.80;29.00;;;;;;5091191;28;20417;-77
2022/03/08 12:26:56;;;;;;;13.03;7.27;;;11.00;28.50;;;;;;5091348;28;20413;-77
2022/03/08 12:29:22;;;;;;;16.00;7.53;;;10.50;29.10;;;;;;5088199;28;20468;-77
2022/03/08 12:31:57;;;;;;;13.87;6.97;;;10.60;29.10;;;;;;5079875;28;20486;-77
2022/03/08 12:34:35;;;;;;;15.60;7.97;;;10.40;29.00;;;;;;5093653;28;20609;-78